Time;durP1;ratioP1;P1;durP2;ratioP2;P2;SDS_P1;SDS_P2;PMS_P1;PMS_P2;Temp;Humidity;BMP_temperature;BMP_pressure;BME280_temperature;BME280_humidity;BME280_pressure;Samples;Min_cycle;Max_cycle;Signal;HPM_P1;HPM_P2
2022/05/23 03:05:21;;;;;;;3.90;0.93;;;17.80;60.00;;;;;;4755436;30;20063;-74
2022/05/23 03:07:47;;;;;;;5.32;1.30;;;17.80;60.60;;;;;;4739855;30;20063;-74
2022/05/23 03:10:13;;;;;;;2.70;0.50;;;17.80;60.80;;;;;;4754293;30;20367;-75
2022/05/23 03:12:39;;;;;;;4.22;0.98;;;17.90;61.10;;;;;;4754964;30;20052;-76
2022/05/23 03:15:06;;;;;;;3.72;1.00;;;17.90;61.30;;;;;;4755635;30;20048;-76
2022/05/23 03:17:32;;;;;;;2.35;0.85;;;18.00;61.60;;;;;;4755107;30;20099;-75
2022/05/23 03:19:58;;;;;;;2.20;0.70;;;18.00;61.70;;;;;;4755087;30;20043;-77
2022/05/23 03:27:53;;;;;;;2.90;0.63;;;18.20;62.00;;;;;;4736792;30;20064;-76
2022/05/23 03:30:19;;;;;;;2.65;0.80;;;18.20;61.90;;;;;;4737348;30;20206;-77
2022/05/23 03:32:45;;;;;;;2.95;0.60;;;18.20;62.00;;;;;;4737656;30;20143;-77
2022/05/23 03:35:11;;;;;;;2.42;0.65;;;18.20;62.00;;;;;;4737454;30;20049;-78
2022/05/23 03:37:37;;;;;;;3.10;0.52;;;18.30;62.00;;;;;;4737816;30;20131;-76
2022/05/23 03:40:05;;;;;;;3.08;0.82;;;18.30;61.90;;;;;;4736947;30;20210;-77
2022/05/23 03:42:31;;;;;;;2.72;0.82;;;18.30;62.00;;;;;;4736554;30;20053;-76
2022/05/23 03:44:56;;;;;;;2.50;0.88;;;18.30;62.10;;;;;;4737167;30;20448;-76
2022/05/23 03:47:22;;;;;;;5.40;0.80;;;18.40;62.30;;;;;;4751127;30;20064;-76
2022/05/23 03:49:48;;;;;;;8.02;1.58;;;18.40;61.90;;;;;;4737387;30;20477;-79
2022/05/23 03:52:14;;;;;;;7.68;1.17;;;18.40;61.70;;;;;;4744919;30;20048;-75
2022/05/23 03:54:40;;;;;;;9.13;1.15;;;18.40;61.80;;;;;;4754430;30;20452;-75
2022/05/23 03:57:06;;;;;;;7.05;1.05;;;18.40;61.90;;;;;;4754915;30;20048;-77
2022/05/23 03:59:33;;;;;;;6.07;1.17;;;18.40;62.00;;;;;;4739012;30;20056;-75
2022/05/23 04:01:59;;;;;;;4.32;0.60;;;18.40;62.20;;;;;;4739116;30;20048;-77
2022/05/23 04:04:26;;;;;;;6.47;0.98;;;18.40;62.20;;;;;;4738209;30;20064;-76
2022/05/23 04:06:59;;;;;;;5.15;1.17;;;18.50;62.40;;;;;;4739522;30;20102;-75
2022/05/23 04:09:26;;;;;;;10.68;1.33;;;18.50;62.50;;;;;;4754343;30;20052;-73
2022/05/23 04:11:51;;;;;;;4.63;0.68;;;18.50;62.50;;;;;;4754399;30;20123;-74
2022/05/23 04:14:17;;;;;;;3.78;1.00;;;18.50;62.50;;;;;;4738604;30;20496;-75
2022/05/23 04:16:46;;;;;;;3.65;0.90;;;18.50;62.50;;;;;;4738945;30;20147;-74
2022/05/23 04:19:12;;;;;;;5.20;0.88;;;18.50;62.70;;;;;;4739294;30;20066;-76
2022/05/23 04:21:42;;;;;;;8.55;0.90;;;18.50;62.90;;;;;;4754379;30;20123;-75
2022/05/23 04:24:09;;;;;;;8.75;1.50;;;18.50;62.70;;;;;;4738267;30;20055;-75
2022/05/23 04:26:36;;;;;;;5.45;1.40;;;18.60;62.70;;;;;;4738282;30;20147;-73
2022/05/23 04:29:02;;;;;;;5.90;1.10;;;18.60;62.40;;;;;;4753825;30;20091;-74
2022/05/23 04:31:28;;;;;;;6.93;1.40;;;18.50;62.00;;;;;;4754056;30;20427;-72
2022/05/23 04:36:39;;;;;;;3.10;1.08;;;18.50;61.80;;;;;;4736875;30;20102;-78
2022/05/23 04:39:04;;;;;;;5.22;1.00;;;18.50;61.40;;;;;;4750044;30;20421;-76
2022/05/23 04:41:30;;;;;;;2.55;1.30;;;18.40;61.00;;;;;;4770605;30;20094;-80
2022/05/23 04:43:56;;;;;;;2.30;1.05;;;18.40;60.80;;;;;;4767528;30;20056;-79
2022/05/23 04:46:22;;;;;;;4.97;1.33;;;18.30;60.70;;;;;;4753920;30;20102;-76
2022/05/23 04:51:32;;;;;;;4.78;1.27;;;18.20;60.70;;;;;;4754542;30;20103;-76
2022/05/23 04:53:59;;;;;;;4.47;0.93;;;18.20;60.70;;;;;;4738151;30;20091;-76
2022/05/23 04:56:27;;;;;;;8.50;1.80;;;18.20;60.60;;;;;;4769760;30;20036;-77
2022/05/23 04:58:52;;;;;;;5.60;0.98;;;18.10;60.70;;;;;;4768264;30;20160;-72
2022/05/23 05:01:21;;;;;;;5.43;1.20;;;18.10;61.00;;;;;;4752351;30;20123;-76
2022/05/23 05:03:48;;;;;;;3.60;1.13;;;18.10;61.40;;;;;;4728255;30;20494;-80
2022/05/23 05:06:17;;;;;;;4.75;1.00;;;18.20;61.60;;;;;;4738356;30;20133;-75
2022/05/23 05:08:43;;;;;;;5.57;1.98;;;18.20;61.70;;;;;;4750514;30;20056;-74
2022/05/23 05:11:08;;;;;;;8.45;1.55;;;18.30;61.80;;;;;;4739170;30;20161;-75
2022/05/23 05:13:36;;;;;;;4.63;0.80;;;18.30;61.80;;;;;;4738359;30;20059;-74
2022/05/23 05:16:03;;;;;;;3.58;0.98;;;18.30;61.90;;;;;;4765790;30;20069;-74
2022/05/23 05:18:33;;;;;;;4.60;1.08;;;18.30;61.90;;;;;;4770787;30;20135;-75
2022/05/23 05:21:09;;;;;;;4.70;0.88;;;18.40;62.20;;;;;;4723639;30;20147;-74
2022/05/23 05:23:36;;;;;;;3.95;1.17;;;18.30;62.10;;;;;;4738258;30;20092;-75
2022/05/23 05:26:02;;;;;;;7.15;1.08;;;18.40;62.60;;;;;;4753852;30;20118;-79
2022/05/23 05:28:29;;;;;;;5.97;1.10;;;18.40;62.70;;;;;;4753578;30;20052;-74
2022/05/23 05:31:05;;;;;;;8.93;1.27;;;18.40;62.60;;;;;;4756370;30;20055;-75
2022/05/23 05:33:39;;;;;;;5.03;0.90;;;18.40;62.60;;;;;;4771374;30;20130;-76
2022/05/23 05:36:17;;;;;;;6.43;0.90;;;18.40;62.50;;;;;;4771720;30;20056;-76
2022/05/23 05:38:48;;;;;;;4.40;1.33;;;18.50;62.40;;;;;;4771475;30;20060;-75
2022/05/23 05:41:29;;;;;;;8.57;1.50;;;18.50;62.50;;;;;;4757646;30;20052;-82
2022/05/23 05:44:04;;;;;;;9.45;1.00;;;18.50;62.50;;;;;;4774476;30;20492;-78
2022/05/23 05:46:44;;;;;;;12.32;1.63;;;18.50;62.70;;;;;;4774504;30;20100;-78
2022/05/23 05:49:15;;;;;;;3.85;1.48;;;18.50;62.10;;;;;;4758496;30;20059;-77
2022/05/23 05:51:43;;;;;;;6.13;2.08;;;18.50;61.70;;;;;;4774266;30;20051;-75
2022/05/23 05:54:13;;;;;;;13.85;2.35;;;18.40;61.40;;;;;;4774313;30;20060;-78
2022/05/23 05:56:39;;;;;;;9.75;2.40;;;18.40;61.40;;;;;;4743866;30;20060;-75
2022/05/23 05:59:06;;;;;;;10.35;2.10;;;18.40;61.40;;;;;;4775019;30;20055;-75
2022/05/23 06:01:32;;;;;;;13.43;2.50;;;18.40;61.20;;;;;;4774283;30;20059;-77
2022/05/23 06:03:57;;;;;;;12.68;2.58;;;18.40;61.30;;;;;;4766711;30;20112;-74
2022/05/23 06:11:51;;;;;;;8.50;2.45;;;18.40;61.30;;;;;;4773983;30;20075;-74
2022/05/23 06:14:17;;;;;;;6.90;1.63;;;18.40;61.20;;;;;;4758500;30;20543;-74
2022/05/23 06:16:43;;;;;;;5.63;1.92;;;18.30;61.00;;;;;;4773922;30;20056;-74
2022/05/23 06:19:09;;;;;;;5.88;1.90;;;18.30;61.10;;;;;;4758448;30;20059;-74
2022/05/23 06:21:34;;;;;;;4.97;2.22;;;18.30;61.10;;;;;;4773976;30;20476;-74
2022/05/23 06:24:00;;;;;;;4.35;1.88;;;18.30;61.10;;;;;;4774011;30;20438;-75
2022/05/23 06:26:26;;;;;;;6.53;1.98;;;18.30;61.20;;;;;;4757864;30;20444;-77
2022/05/23 06:28:52;;;;;;;4.03;1.77;;;18.30;61.30;;;;;;4773602;30;20070;-75
2022/05/23 06:31:18;;;;;;;4.53;1.90;;;18.30;61.30;;;;;;4758056;30;20056;-76
2022/05/23 06:33:44;;;;;;;6.05;2.45;;;18.30;61.30;;;;;;4773554;30;20052;-74
2022/05/23 06:36:12;;;;;;;4.28;2.38;;;18.30;61.30;;;;;;4755025;30;20054;-73
2022/05/23 06:38:39;;;;;;;5.70;2.83;;;18.40;61.20;;;;;;4758440;30;20063;-74
2022/05/23 06:41:06;;;;;;;6.18;2.65;;;18.40;60.90;;;;;;4772057;30;20399;-73
2022/05/23 06:43:33;;;;;;;5.07;2.03;;;18.40;60.70;;;;;;4772903;30;20055;-74
2022/05/23 06:46:00;;;;;;;5.47;2.53;;;18.50;60.80;;;;;;4773802;30;20066;-75
2022/05/23 06:48:26;;;;;;;5.85;2.65;;;18.50;60.70;;;;;;4757540;30;20058;-73
2022/05/23 06:50:52;;;;;;;9.60;2.58;;;18.50;60.50;;;;;;4773724;30;20439;-74
2022/05/23 06:53:19;;;;;;;7.72;2.53;;;18.50;60.80;;;;;;4757590;30;20112;-75
2022/05/23 06:55:46;;;;;;;8.02;2.30;;;18.50;61.10;;;;;;4772683;30;20120;-74
2022/05/23 06:58:11;;;;;;;11.38;2.47;;;18.50;61.40;;;;;;4769889;30;20495;-74
2022/05/23 07:00:38;;;;;;;8.00;2.20;;;18.50;61.60;;;;;;4772851;30;20117;-77
2022/05/23 07:03:04;;;;;;;4.70;1.98;;;18.50;61.80;;;;;;4772523;30;20032;-74
2022/05/23 07:13:44;;;;;;;4.88;2.03;;;18.80;62.60;;;;;;4771171;30;20052;-75
2022/05/23 07:16:11;;;;;;;4.97;1.67;;;18.80;63.00;;;;;;4742485;30;20116;-70
2022/05/23 07:18:38;;;;;;;9.07;2.00;;;18.80;62.50;;;;;;4772557;30;20057;-72
2022/05/23 07:21:07;;;;;;;4.57;1.60;;;18.90;62.60;;;;;;4772583;30;20048;-71
2022/05/23 07:23:37;;;;;;;8.50;2.08;;;18.90;62.60;;;;;;4757288;30;20444;-71
2022/05/23 07:26:07;;;;;;;6.38;1.58;;;18.90;62.60;;;;;;4756898;30;20068;-72
2022/05/23 07:28:35;;;;;;;7.10;1.67;;;18.90;62.50;;;;;;4772981;30;20083;-73
2022/05/23 07:31:02;;;;;;;11.40;1.88;;;19.00;62.60;;;;;;4756555;30;20098;-73
2022/05/23 07:33:28;;;;;;;5.57;1.77;;;19.00;62.60;;;;;;4756967;30;20060;-72
2022/05/23 07:35:58;;;;;;;4.28;1.35;;;19.00;62.60;;;;;;4756594;30;20087;-72
2022/05/23 07:38:24;;;;;;;5.00;1.40;;;19.00;62.60;;;;;;4757240;30;20052;-72
2022/05/23 07:40:51;;;;;;;5.55;1.55;;;19.00;62.60;;;;;;4772484;30;20349;-72
2022/05/23 07:43:17;;;;;;;5.07;1.67;;;19.00;62.60;;;;;;4772525;30;20384;-72
2022/05/23 07:45:44;;;;;;;4.55;1.30;;;19.00;62.70;;;;;;4771977;30;20063;-72
2022/05/23 07:48:10;;;;;;;4.50;1.70;;;19.10;62.70;;;;;;4769446;30;20062;-73
2022/05/23 07:50:37;;;;;;;4.43;1.50;;;19.10;62.70;;;;;;4756542;30;20063;-71
2022/05/23 08:01:16;;;;;;;6.05;2.35;;;19.20;62.80;;;;;;4771982;30;20059;-72
2022/05/23 08:03:42;;;;;;;6.18;2.30;;;19.20;62.20;;;;;;4770728;30;20073;-74
2022/05/23 08:06:09;;;;;;;5.65;1.80;;;19.30;62.60;;;;;;4756042;30;20083;-72
2022/05/23 08:08:35;;;;;;;2.13;1.30;;;19.30;62.70;;;;;;4788598;30;20418;-72
2022/05/23 08:11:01;;;;;;;6.95;2.33;;;19.30;62.70;;;;;;4773796;30;20128;-74
2022/05/23 08:13:27;;;;;;;4.30;2.70;;;19.30;62.80;;;;;;4790019;30;20063;-73
2022/05/23 08:15:53;;;;;;;5.53;3.10;;;19.40;62.30;;;;;;4772642;30;20051;-73
2022/05/23 08:18:19;;;;;;;4.45;3.20;;;19.40;62.00;;;;;;4772065;30;20075;-73
2022/05/23 08:20:45;;;;;;;4.30;2.92;;;19.50;62.10;;;;;;4769473;30;20058;-72
2022/05/23 08:23:11;;;;;;;9.60;3.17;;;19.50;62.10;;;;;;4770411;30;20145;-74
2022/05/23 08:25:37;;;;;;;8.80;3.05;;;19.50;62.20;;;;;;4771735;30;20119;-75
2022/05/23 08:28:03;;;;;;;7.63;3.55;;;19.50;62.20;;;;;;4768071;30;20052;-74
2022/05/23 08:30:29;;;;;;;10.57;3.05;;;19.50;62.50;;;;;;4763999;30;20051;-73
2022/05/23 08:32:55;;;;;;;8.57;2.35;;;19.50;63.00;;;;;;4771792;30;20134;-73
2022/05/23 08:35:23;;;;;;;6.70;2.15;;;19.50;63.30;;;;;;4772215;30;20056;-72
2022/05/23 08:37:48;;;;;;;6.63;2.33;;;19.50;63.60;;;;;;4752439;30;20056;-74
2022/05/23 08:40:14;;;;;;;6.18;2.58;;;19.50;63.80;;;;;;4753965;30;20058;-72
2022/05/23 08:42:46;;;;;;;6.65;2.38;;;19.50;64.10;;;;;;4746477;30;20133;-73
2022/05/23 08:45:21;;;;;;;4.55;2.00;;;19.50;64.10;;;;;;4755007;30;20405;-72
2022/05/23 08:48:22;;;;;;;6.57;2.25;;;19.50;64.10;;;;;;4755784;30;20085;-75
2022/05/23 08:51:14;;;;;;;11.65;2.20;;;19.50;64.10;;;;;;4769866;30;20051;-71
2022/05/23 08:53:53;;;;;;;9.55;2.15;;;19.50;64.20;;;;;;4771997;30;20048;-71
2022/05/23 08:56:36;;;;;;;11.27;2.70;;;19.60;64.50;;;;;;4755984;30;20067;-70
2022/05/23 08:59:04;;;;;;;4.43;1.83;;;19.50;64.40;;;;;;4773803;30;20035;-70
2022/05/23 09:01:59;;;;;;;5.45;2.20;;;19.60;64.60;;;;;;4755931;30;20308;-72
2022/05/23 09:04:34;;;;;;;5.32;2.10;;;19.60;64.80;;;;;;4743198;30;20048;-73
2022/05/23 09:07:02;;;;;;;4.53;2.00;;;19.60;64.70;;;;;;4754000;30;20091;-73
2022/05/23 09:09:31;;;;;;;5.18;2.88;;;19.60;64.70;;;;;;4738007;30;20098;-71
2022/05/23 09:12:11;;;;;;;4.95;2.60;;;19.70;64.30;;;;;;4753660;30;20067;-70
2022/05/23 09:14:38;;;;;;;6.65;3.50;;;19.70;63.60;;;;;;4739457;30;20083;-71
2022/05/23 09:17:08;;;;;;;7.03;3.30;;;19.70;63.60;;;;;;4757370;30;20060;-72
2022/05/23 09:19:41;;;;;;;7.10;3.53;;;19.80;64.00;;;;;;4757045;30;20140;-72
2022/05/23 09:22:14;;;;;;;;;;;19.80;64.00;;;;;;4757514;30;20067;-73
2022/05/23 09:24:55;;;;;;;8.35;3.38;;;19.80;64.10;;;;;;4740377;30;19926;-68
2022/05/23 09:27:35;;;;;;;5.75;2.67;;;19.80;64.20;;;;;;4756952;30;20056;-71
2022/05/23 09:30:03;;;;;;;7.70;2.70;;;19.90;65.10;;;;;;4757272;30;20095;-72
2022/05/23 09:32:36;;;;;;;6.07;2.80;;;19.80;64.50;;;;;;4756813;30;20189;-72
2022/05/23 09:35:23;;;;;;;6.68;2.92;;;19.80;64.50;;;;;;4741613;30;20374;-71
2022/05/23 09:38:14;;;;;;;7.20;2.50;;;19.80;64.70;;;;;;4757069;30;20496;-72
2022/05/23 09:40:40;;;;;;;5.53;2.30;;;19.90;64.80;;;;;;4741232;30;20098;-71
2022/05/23 09:49:11;;;;;;;8.00;2.33;;;19.90;64.70;;;;;;4756720;30;20055;-71
2022/05/23 09:51:56;;;;;;;6.20;2.20;;;19.80;64.70;;;;;;4740659;30;20059;-72
2022/05/23 09:54:26;;;;;;;7.43;2.13;;;19.80;64.80;;;;;;4741843;30;20064;-70
2022/05/23 09:56:53;;;;;;;10.18;2.60;;;19.90;64.80;;;;;;4741047;30;20052;-70
2022/05/23 09:59:36;;;;;;;5.50;2.10;;;19.80;64.70;;;;;;4727254;30;20439;-70
2022/05/23 10:02:31;;;;;;;5.03;2.50;;;19.90;64.70;;;;;;4740207;30;20365;-70
2022/05/23 10:04:57;;;;;;;3.90;2.28;;;19.90;64.60;;;;;;4755777;30;20349;-72
2022/05/23 10:07:30;;;;;;;5.70;2.40;;;19.90;64.80;;;;;;4756218;30;20376;-71
2022/05/23 10:10:02;;;;;;;6.75;3.20;;;19.90;64.80;;;;;;4756135;30;20445;-74
2022/05/23 10:12:28;;;;;;;4.50;2.60;;;19.90;64.60;;;;;;4756253;30;20059;-70
2022/05/23 10:15:28;;;;;;;7.63;3.28;;;19.90;64.70;;;;;;4756033;30;20064;-72
2022/05/23 10:18:16;;;;;;;4.78;3.25;;;19.90;65.50;;;;;;4756427;30;20056;-71
2022/05/23 10:20:43;;;;;;;8.77;3.58;;;20.00;65.00;;;;;;4756052;30;20144;-72
2022/05/23 10:23:19;;;;;;;5.47;3.20;;;20.10;64.90;;;;;;4755979;30;20117;-71
2022/05/23 10:26:06;;;;;;;7.75;3.97;;;20.10;65.10;;;;;;4747000;30;20071;-72
2022/05/23 10:28:44;;;;;;;7.32;4.25;;;20.10;65.00;;;;;;4738158;30;20060;-75
2022/05/23 10:31:35;;;;;;;6.10;3.78;;;20.20;64.90;;;;;;4752060;30;20519;-73
2022/05/23 10:34:40;;;;;;;7.95;3.88;;;20.20;65.30;;;;;;4754766;30;20060;-73
2022/05/23 10:37:24;;;;;;;6.25;3.63;;;20.20;65.00;;;;;;4718250;30;20538;-73
2022/05/23 10:43:02;;;;;;;10.57;4.43;;;20.30;65.00;;;;;;4738141;30;20065;-72
2022/05/23 10:45:46;;;;;;;9.10;3.95;;;20.30;65.10;;;;;;4737894;30;20334;-74
2022/05/23 10:48:15;;;;;;;8.18;3.97;;;20.30;64.90;;;;;;4737917;30;20118;-73
2022/05/23 10:50:46;;;;;;;7.30;3.60;;;20.30;64.70;;;;;;4737767;30;20351;-75
2022/05/23 10:53:40;;;;;;;7.85;4.18;;;20.40;65.00;;;;;;4738013;30;20121;-72
2022/05/23 10:56:17;;;;;;;7.35;3.72;;;20.40;64.90;;;;;;4745630;30;20499;-75
2022/05/23 10:58:57;;;;;;;8.40;4.22;;;20.40;64.70;;;;;;4755737;30;20138;-72
2022/05/23 11:01:41;;;;;;;7.85;3.88;;;20.40;65.00;;;;;;4739884;30;20052;-74
2022/05/23 11:04:28;;;;;;;5.50;3.45;;;20.40;64.90;;;;;;4749189;30;20082;-73
2022/05/23 11:06:54;;;;;;;7.55;4.13;;;20.50;64.80;;;;;;4772623;30;20379;-74
2022/05/23 11:09:41;;;;;;;7.30;3.70;;;20.40;64.90;;;;;;4773225;30;20056;-73
2022/05/23 11:12:20;;;;;;;5.47;3.70;;;20.40;64.90;;;;;;4772997;30;20063;-73
2022/05/23 11:15:09;;;;;;;6.22;3.22;;;20.50;64.70;;;;;;4772990;30;20134;-73
2022/05/23 11:17:43;;;;;;;6.07;2.92;;;20.50;64.80;;;;;;4756662;30;20059;-73
2022/05/23 11:20:18;;;;;;;8.50;4.68;;;20.50;64.80;;;;;;4772305;30;20067;-71
2022/05/23 11:22:54;;;;;;;5.82;3.33;;;20.60;64.80;;;;;;4772903;30;20467;-74
2022/05/23 11:25:38;;;;;;;6.28;3.42;;;20.60;64.40;;;;;;4757098;30;20500;-72
2022/05/23 11:34:22;;;;;;;8.02;4.13;;;20.60;64.80;;;;;;4772177;30;20051;-73
2022/05/23 11:36:57;;;;;;;4.80;2.83;;;20.60;65.10;;;;;;4772231;30;20476;-74
2022/05/23 11:39:48;;;;;;;7.50;3.60;;;20.70;64.50;;;;;;4772515;30;20056;-73
2022/05/23 11:42:15;;;;;;;3.72;3.00;;;20.70;63.80;;;;;;4772008;30;20055;-71
2022/05/23 11:44:48;;;;;;;5.60;2.92;;;20.80;63.30;;;;;;4740789;30;20044;-73
2022/05/23 11:47:25;;;;;;;6.07;3.30;;;20.70;63.10;;;;;;4765945;30;20055;-72
2022/05/23 11:50:00;;;;;;;5.63;3.47;;;20.80;63.30;;;;;;4772190;30;20086;-74
2022/05/23 11:52:33;;;;;;;5.93;2.97;;;20.80;64.00;;;;;;4757065;30;20055;-73
2022/05/23 11:54:58;;;;;;;7.55;3.20;;;20.80;64.40;;;;;;4756815;30;20062;-74
2022/05/23 11:57:41;;;;;;;8.38;2.78;;;20.70;64.50;;;;;;4756669;30;20060;-73
2022/05/23 12:00:31;;;;;;;6.90;2.50;;;20.70;64.70;;;;;;4756913;30;20052;-73
2022/05/23 12:03:06;;;;;;;5.53;3.25;;;20.70;64.60;;;;;;4771699;30;20059;-71
2022/05/23 12:05:33;;;;;;;5.90;2.47;;;20.70;64.70;;;;;;4772307;30;20341;-73
2022/05/23 12:08:03;;;;;;;3.75;2.35;;;20.70;64.70;;;;;;4756370;30;20056;-74
2022/05/23 12:10:36;;;;;;;6.05;2.35;;;20.60;64.70;;;;;;4771926;30;20052;-73
2022/05/23 12:13:13;;;;;;;4.57;2.22;;;20.60;64.70;;;;;;4756777;30;20063;-73
2022/05/23 12:15:46;;;;;;;2.75;1.92;;;20.60;64.90;;;;;;4772250;30;20048;-73
2022/05/23 12:18:24;;;;;;;3.28;2.10;;;20.60;64.70;;;;;;4756320;30;20071;-74
2022/05/23 12:21:06;;;;;;;7.15;2.20;;;20.60;64.80;;;;;;4756036;30;20048;-73
2022/05/23 12:23:44;;;;;;;4.10;2.38;;;20.60;64.80;;;;;;4756071;30;20558;-73
2022/05/23 12:26:10;;;;;;;5.35;2.00;;;20.60;64.90;;;;;;4771831;30;20464;-73
2022/05/23 12:29:00;;;;;;;5.30;2.13;;;20.60;64.90;;;;;;4771693;30;20101;-74
2022/05/23 12:31:27;;;;;;;4.40;1.90;;;20.60;65.00;;;;;;4771819;30;20063;-75
2022/05/23 12:34:02;;;;;;;10.93;2.85;;;20.60;64.90;;;;;;4771421;30;20456;-72
2022/05/23 12:36:31;;;;;;;4.15;1.92;;;20.60;64.60;;;;;;4771619;30;20058;-76
2022/05/23 12:39:42;;;;;;;8.35;2.00;;;20.60;64.80;;;;;;4772037;30;20071;-73
2022/05/23 12:42:17;;;;;;;7.60;2.13;;;20.60;64.40;;;;;;4756482;30;20392;-73
2022/05/23 12:45:19;;;;;;;11.45;2.60;;;20.60;63.90;;;;;;4738624;30;20064;-72
2022/05/23 12:48:10;;;;;;;13.13;2.70;;;20.70;64.50;;;;;;4754220;30;20060;-72
2022/05/23 12:50:48;;;;;;;7.35;2.10;;;20.70;63.90;;;;;;4741584;30;20075;-73
2022/05/23 12:53:32;;;;;;;11.63;2.58;;;20.70;64.40;;;;;;4742501;30;20056;-72
2022/05/23 12:56:08;;;;;;;13.43;2.67;;;20.70;65.00;;;;;;4742179;30;20064;-71
2022/05/23 12:58:56;;;;;;;9.25;2.72;;;20.70;65.00;;;;;;4741740;30;20098;-72
2022/05/23 13:01:28;;;;;;;15.05;2.92;;;20.70;65.30;;;;;;4757199;30;20056;-74
2022/05/23 13:04:06;;;;;;;17.63;2.83;;;20.70;65.20;;;;;;4757161;30;20060;-74
2022/05/23 13:06:50;;;;;;;15.70;2.60;;;20.70;65.30;;;;;;4763184;30;20071;-72
2022/05/23 13:09:21;;;;;;;8.43;2.40;;;20.70;65.30;;;;;;4770816;30;20391;-73
2022/05/23 13:11:54;;;;;;;15.00;2.55;;;20.70;65.10;;;;;;4774408;30;20055;-72
2022/05/23 13:14:21;;;;;;;15.57;3.30;;;20.70;65.10;;;;;;4774863;30;20060;-73
2022/05/23 13:16:53;;;;;;;10.05;2.17;;;20.70;65.30;;;;;;4756937;30;20107;-70
2022/05/23 13:22:14;;;;;;;16.52;3.50;;;20.70;66.50;;;;;;4774377;30;20047;-75
2022/05/23 13:25:07;;;;;;;17.35;2.83;;;20.70;66.60;;;;;;4774197;30;20052;-72
2022/05/23 13:27:48;;;;;;;19.00;3.28;;;20.70;66.40;;;;;;4772298;30;20095;-74
2022/05/23 13:30:17;;;;;;;12.30;2.60;;;20.80;66.00;;;;;;4758720;30;20102;-74
2022/05/23 13:32:43;;;;;;;11.07;3.05;;;20.80;65.70;;;;;;4774881;30;20055;-75
2022/05/23 13:35:28;;;;;;;10.23;2.88;;;20.80;65.70;;;;;;4768605;30;20063;-74
2022/05/23 13:37:54;;;;;;;9.30;2.70;;;20.80;66.60;;;;;;4774365;30;20056;-74
2022/05/23 13:40:29;;;;;;;7.78;2.17;;;20.80;66.90;;;;;;4774758;30;20139;-77
2022/05/23 13:43:12;;;;;;;16.13;2.80;;;20.80;66.70;;;;;;4774973;30;20086;-74
2022/05/23 13:45:42;;;;;;;6.85;2.38;;;20.80;67.00;;;;;;4774361;30;20392;-74
2022/05/23 13:48:24;;;;;;;6.25;2.50;;;20.80;66.50;;;;;;4758913;30;20059;-76
2022/05/23 13:50:55;;;;;;;4.68;2.40;;;20.90;63.70;;;;;;4774293;30;20368;-75
2022/05/23 13:53:34;;;;;;;10.13;2.50;;;20.90;63.50;;;;;;4774379;30;20487;-76
2022/05/23 13:56:02;;;;;;;5.18;1.73;;;20.80;63.50;;;;;;4792365;30;20058;-73
2022/05/23 13:58:32;;;;;;;4.55;1.90;;;20.80;63.60;;;;;;4792237;30;20552;-76
2022/05/23 14:01:21;;;;;;;4.10;2.15;;;20.80;63.90;;;;;;4788819;29;20137;-73
2022/05/23 14:04:02;;;;;;;5.93;1.95;;;20.70;64.10;;;;;;4757728;30;20059;-74
2022/05/23 14:06:34;;;;;;;3.40;2.10;;;20.70;64.20;;;;;;4770590;30;20428;-76
2022/05/23 14:09:03;;;;;;;3.83;1.83;;;20.80;63.60;;;;;;4774538;30;20132;-74
2022/05/23 14:11:33;;;;;;;5.88;1.80;;;20.70;63.30;;;;;;4773967;30;20098;-75
2022/05/23 14:14:16;;;;;;;3.35;2.08;;;20.80;63.60;;;;;;4774079;30;20140;-75
2022/05/23 14:17:16;;;;;;;3.20;1.30;;;20.70;63.90;;;;;;4773216;30;20095;-74
2022/05/23 14:20:22;;;;;;;1.85;1.45;;;20.70;64.60;;;;;;4711962;30;20079;-74
2022/05/23 14:23:06;;;;;;;7.13;2.30;;;20.70;64.60;;;;;;4732675;30;20063;-73
2022/05/23 14:25:40;;;;;;;2.58;1.88;;;20.70;65.10;;;;;;4757756;30;20476;-74
2022/05/23 14:28:21;;;;;;;4.20;2.20;;;20.70;65.10;;;;;;4758140;30;20353;-74
2022/05/23 14:30:52;;;;;;;4.40;2.88;;;20.60;65.20;;;;;;4758066;30;20056;-73
2022/05/23 14:33:32;;;;;;;8.30;7.07;;;20.60;65.10;;;;;;4771859;30;20371;-72
2022/05/23 14:36:14;;;;;;;7.50;5.22;;;20.70;66.50;;;;;;4758252;30;20064;-72
2022/05/23 14:38:46;;;;;;;13.20;6.05;;;20.60;67.00;;;;;;4758205;30;20055;-73
2022/05/23 14:41:24;;;;;;;16.55;6.28;;;20.60;67.60;;;;;;4773421;30;20131;-71
2022/05/23 14:44:19;;;;;;;11.60;5.88;;;20.70;67.90;;;;;;4773422;30;20454;-74
2022/05/23 14:46:57;;;;;;;20.08;6.57;;;20.70;68.70;;;;;;4773439;30;20478;-72
2022/05/23 14:49:34;;;;;;;15.13;7.70;;;20.70;67.90;;;;;;4773088;30;20120;-72
2022/05/23 14:52:21;;;;;;;9.70;7.50;;;20.70;68.10;;;;;;4773714;30;20051;-71
2022/05/23 15:00:38;;;;;;;10.27;7.85;;;20.70;69.00;;;;;;4773347;30;20056;-74
2022/05/23 15:03:12;;;;;;;11.02;8.75;;;20.70;69.00;;;;;;4773026;30;20126;-73
2022/05/23 15:05:37;;;;;;;10.43;8.70;;;20.70;69.10;;;;;;4773434;30;20050;-72
2022/05/23 15:08:04;;;;;;;13.40;7.70;;;20.80;69.20;;;;;;4773502;30;20043;-73
2022/05/23 15:10:30;;;;;;;23.38;10.13;;;20.80;69.80;;;;;;4757674;30;20062;-71
2022/05/23 15:12:56;;;;;;;16.70;9.32;;;20.80;69.80;;;;;;4757050;30;20070;-71
2022/05/23 15:15:22;;;;;;;16.83;9.68;;;20.80;70.00;;;;;;4772922;30;20059;-73
2022/05/23 15:17:51;;;;;;;17.25;9.82;;;20.80;69.90;;;;;;4772564;30;20051;-73
2022/05/23 15:20:18;;;;;;;16.50;9.63;;;20.90;69.80;;;;;;4772410;30;20052;-74
2022/05/23 15:22:44;;;;;;;12.35;9.43;;;20.90;70.20;;;;;;4757211;30;20456;-74
2022/05/23 15:25:11;;;;;;;13.68;9.57;;;20.90;70.10;;;;;;4757068;30;20126;-72
2022/05/23 15:27:39;;;;;;;16.63;9.70;;;20.90;70.10;;;;;;4756766;30;20134;-72
2022/05/23 15:30:12;;;;;;;16.95;10.57;;;20.90;70.20;;;;;;4757652;30;20054;-75
2022/05/23 15:32:41;;;;;;;20.35;13.05;;;20.90;70.10;;;;;;4756644;30;20483;-73
2022/05/23 15:35:09;;;;;;;31.67;17.17;;;20.90;70.00;;;;;;4757235;30;20059;-72
2022/05/23 15:37:35;;;;;;;24.05;16.38;;;20.90;70.00;;;;;;4757043;30;20064;-72
2022/05/23 15:40:02;;;;;;;23.52;15.82;;;20.80;70.00;;;;;;4772844;30;20473;-72
2022/05/23 15:42:33;;;;;;;19.83;14.38;;;20.80;70.20;;;;;;4772669;30;20101;-72
2022/05/23 15:45:04;;;;;;;25.23;13.80;;;20.80;70.40;;;;;;4771376;30;20056;-74
2022/05/23 15:47:30;;;;;;;23.52;15.18;;;20.80;70.60;;;;;;4772273;30;20059;-76
2022/05/23 15:50:01;;;;;;;26.40;14.48;;;20.80;70.40;;;;;;4769512;30;20058;-73
2022/05/23 15:52:27;;;;;;;27.98;14.02;;;20.80;70.40;;;;;;4774785;30;20552;-76
2022/05/23 15:54:55;;;;;;;21.10;12.50;;;20.80;70.40;;;;;;4790592;30;20448;-75
2022/05/23 15:57:30;;;;;;;24.98;11.40;;;20.80;70.50;;;;;;4774837;30;20619;-73
2022/05/23 16:00:01;;;;;;;27.65;11.20;;;20.80;70.80;;;;;;4790249;30;20051;-74
2022/05/23 16:02:27;;;;;;;21.52;10.63;;;20.80;70.80;;;;;;4777217;30;20423;-74
2022/05/23 16:04:52;;;;;;;30.45;11.38;;;20.80;70.80;;;;;;4755425;30;20113;-74
2022/05/23 16:07:18;;;;;;;21.17;10.27;;;20.80;70.80;;;;;;4772175;30;20055;-74
2022/05/23 16:09:44;;;;;;;20.73;9.82;;;20.80;70.70;;;;;;4772145;30;20143;-73
2022/05/23 16:12:11;;;;;;;19.60;9.85;;;20.80;70.70;;;;;;4771965;30;20055;-76
2022/05/23 16:14:37;;;;;;;20.73;10.23;;;20.80;70.50;;;;;;4755913;30;20097;-74
2022/05/23 16:17:05;;;;;;;27.05;11.75;;;20.80;70.40;;;;;;4771938;30;20058;-74
2022/05/23 16:19:32;;;;;;;22.50;11.85;;;20.80;70.50;;;;;;4771928;30;20075;-73
2022/05/23 16:22:04;;;;;;;27.95;14.02;;;20.80;70.60;;;;;;4772052;30;20051;-75
2022/05/23 16:24:30;;;;;;;25.05;14.90;;;20.70;70.80;;;;;;4755309;30;20071;-73
2022/05/23 16:26:57;;;;;;;25.27;13.80;;;20.60;70.90;;;;;;4756127;30;20143;-74
2022/05/23 16:29:23;;;;;;;21.52;14.75;;;20.60;70.90;;;;;;4771906;30;20121;-74
2022/05/23 16:31:49;;;;;;;24.42;16.08;;;20.50;71.00;;;;;;4772279;30;20048;-74
2022/05/23 16:37:00;;;;;;;22.63;14.75;;;20.50;71.20;;;;;;4772061;30;20064;-72
2022/05/23 16:39:26;;;;;;;21.42;15.05;;;20.40;71.40;;;;;;4756558;30;20124;-76
2022/05/23 18:49:56;;;;;;;9.55;4.72;;;20.40;69.50;;;;;;5489117;24;20056;-68
2022/05/23 18:52:22;;;;;;;10.30;4.38;;;20.40;69.80;;;;;;4732269;30;20078;-72
2022/05/23 18:54:49;;;;;;;7.55;4.20;;;20.30;69.70;;;;;;4737784;30;20470;-73
2022/05/23 18:57:16;;;;;;;6.85;3.80;;;20.30;69.70;;;;;;4738202;30;20055;-72
2022/05/23 18:59:59;;;;;;;5.68;3.70;;;20.30;69.80;;;;;;4737580;30;20060;-72
2022/05/23 19:02:28;;;;;;;6.00;3.65;;;20.30;69.80;;;;;;4736560;30;20404;-73
2022/05/23 19:04:54;;;;;;;7.20;3.22;;;20.40;69.90;;;;;;4736933;30;20048;-72
2022/05/23 19:07:20;;;;;;;7.80;3.92;;;20.40;69.90;;;;;;4737540;30;20354;-74
2022/05/23 19:09:51;;;;;;;5.60;3.58;;;20.30;69.50;;;;;;4722103;30;20063;-73
2022/05/23 19:12:19;;;;;;;11.25;7.53;;;20.30;69.50;;;;;;4737922;30;20056;-72
2022/05/23 19:14:46;;;;;;;10.50;8.20;;;20.30;68.40;;;;;;4722180;30;20378;-73
2022/05/23 19:17:12;;;;;;;11.05;9.07;;;20.20;67.60;;;;;;4737956;30;20110;-72
2022/05/23 19:19:38;;;;;;;14.85;9.68;;;20.00;67.80;;;;;;4737561;30;20060;-72